Time;durP1;ratioP1;P1;durP2;ratioP2;P2;SDS_P1;SDS_P2;PMS_P1;PMS_P2;Temp;Humidity;BMP_temperature;BMP_pressure;BME280_temperature;BME280_humidity;BME280_pressure;Samples;Min_cycle;Max_cycle;Signal;HPM_P1;HPM_P2
2022/01/27 00:01:41;;;;;;;26.52;10.57;;;5.50;99.90;;;;;;5014577;28;20033;-79
2022/01/27 00:06:39;;;;;;;25.80;9.98;;;5.50;99.90;;;;;;5015491;28;20025;-79
2022/01/27 00:09:13;;;;;;;27.40;11.77;;;5.40;99.90;;;;;;5015678;28;20026;-79
2022/01/27 00:11:42;;;;;;;26.08;10.48;;;5.30;99.90;;;;;;5013470;28;20030;-80
2022/01/27 00:14:10;;;;;;;24.65;9.25;;;5.40;99.90;;;;;;5015167;28;20025;-80
2022/01/27 00:16:40;;;;;;;27.80;10.82;;;5.30;99.90;;;;;;5015328;28;20080;-79
2022/01/27 00:19:06;;;;;;;27.95;11.50;;;5.30;99.90;;;;;;5015050;28;20037;-79
2022/01/27 00:21:32;;;;;;;29.23;10.70;;;5.30;1.00;;;;;;5014820;28;20029;-79
2022/01/27 00:23:58;;;;;;;27.75;9.98;;;5.30;1.00;;;;;;5014739;28;20080;-80
2022/01/27 00:26:24;;;;;;;28.02;11.23;;;5.30;1.00;;;;;;5013219;28;20072;-79
2022/01/27 00:28:50;;;;;;;28.10;11.13;;;5.30;99.90;;;;;;5014470;28;20064;-79
2022/01/27 00:31:18;;;;;;;28.45;10.73;;;5.30;99.90;;;;;;5014457;28;20030;-79
2022/01/27 00:33:46;;;;;;;24.73;10.43;;;5.20;1.00;;;;;;5014758;28;20022;-79
2022/01/27 00:36:12;;;;;;;26.60;11.38;;;5.20;99.90;;;;;;5014471;28;20466;-80
2022/01/27 00:38:38;;;;;;;30.05;12.15;;;5.20;1.00;;;;;;5013480;28;20029;-79
2022/01/27 00:41:03;;;;;;;29.10;11.75;;;5.30;99.90;;;;;;5014770;28;20026;-79
2022/01/27 00:43:29;;;;;;;28.42;11.75;;;5.20;1.00;;;;;;5014364;28;20041;-79
2022/01/27 00:45:55;;;;;;;30.60;12.00;;;5.20;99.90;;;;;;5014816;28;20041;-79
2022/01/27 00:48:20;;;;;;;28.02;11.73;;;5.20;99.90;;;;;;5014452;28;20097;-79
2022/01/27 00:50:51;;;;;;;29.90;12.98;;;5.30;99.90;;;;;;5014515;28;20034;-79
2022/01/27 00:54:06;;;;;;;;;;;5.20;99.90;;;;;;5014194;28;20026;-79
2022/01/27 00:56:16;;;;;;;29.50;11.60;;;5.20;99.90;;;;;;5013803;28;19906;-79
2022/01/27 00:58:52;;;;;;;28.43;12.97;;;5.30;99.90;;;;;;5014283;28;20088;-79
2022/01/27 01:01:22;;;;;;;27.65;12.45;;;5.20;1.00;;;;;;5014614;28;20337;-79
2022/01/27 01:03:50;;;;;;;31.88;12.18;;;5.10;1.00;;;;;;5014383;28;20028;-79
2022/01/27 01:06:36;;;;;;;34.08;13.02;;;5.10;1.00;;;;;;5014588;28;20030;-79
2022/01/27 01:16:58;;;;;;;27.08;10.88;;;5.20;99.90;;;;;;5018313;28;20029;-79
2022/01/27 01:19:43;;;;;;;32.47;12.63;;;5.10;1.00;;;;;;5016832;28;20041;-79
2022/01/27 01:32:54;;;;;;;27.65;11.93;;;4.90;1.00;;;;;;5018150;28;20477;-79
2022/01/27 01:35:29;;;;;;;30.30;13.38;;;4.80;1.00;;;;;;5018175;28;20026;-79
2022/01/27 01:37:57;;;;;;;27.35;11.27;;;4.80;1.00;;;;;;5017878;28;20033;-79
2022/01/27 01:40:24;;;;;;;28.27;11.98;;;4.60;1.00;;;;;;5033107;28;20050;-79
2022/01/27 01:42:50;;;;;;;27.90;11.82;;;4.60;1.00;;;;;;5017632;28;20029;-79
2022/01/27 01:45:19;;;;;;;31.38;12.77;;;4.60;29.50;;;;;;5016721;28;20022;-79
2022/01/27 01:47:47;;;;;;;27.20;12.27;;;4.50;93.30;;;;;;5016410;28;20082;-79
2022/01/27 01:50:13;;;;;;;29.30;12.57;;;4.60;88.50;;;;;;5016408;28;20022;-79
2022/01/27 01:52:40;;;;;;;28.17;12.60;;;4.60;95.80;;;;;;5017599;28;20559;-79
2022/01/27 01:55:07;;;;;;;32.53;13.00;;;4.50;99.90;;;;;;5017809;28;20026;-79
2022/01/27 01:57:33;;;;;;;35.15;12.27;;;4.60;99.90;;;;;;5016492;28;20058;-79
2022/01/27 01:59:59;;;;;;;29.35;13.00;;;4.90;99.90;;;;;;5016299;28;20053;-78
2022/01/27 02:02:25;;;;;;;36.58;14.43;;;5.10;87.10;;;;;;5017494;28;20033;-79
2022/01/27 02:04:52;;;;;;;33.05;13.15;;;5.20;19.70;;;;;;5017396;28;20117;-79
2022/01/27 02:07:31;;;;;;;31.50;12.68;;;5.30;1.00;;;;;;5016065;28;20025;-79
2022/01/27 02:18:01;;;;;;;27.15;12.15;;;5.60;1.00;;;;;;5017493;28;20137;-79
2022/01/27 02:20:32;;;;;;;33.55;12.98;;;5.60;1.00;;;;;;5017527;28;20335;-79
2022/01/27 02:22:58;;;;;;;28.83;12.52;;;5.70;1.00;;;;;;5015105;28;20489;-79
2022/01/27 02:25:24;;;;;;;30.45;11.80;;;5.70;1.00;;;;;;5017242;28;20382;-79
2022/01/27 02:27:57;;;;;;;36.63;13.75;;;5.80;1.00;;;;;;5016950;28;20508;-79
2022/01/27 02:30:24;;;;;;;32.13;12.95;;;5.80;99.90;;;;;;5016866;28;20097;-80
2022/01/27 02:32:53;;;;;;;32.67;12.93;;;5.80;99.90;;;;;;5016966;28;20053;-79
2022/01/27 02:35:25;;;;;;;36.13;13.88;;;5.90;99.90;;;;;;5015497;28;20449;-79
2022/01/27 02:37:52;;;;;;;37.65;14.18;;;5.90;99.90;;;;;;5016910;28;20029;-79
2022/01/27 02:40:26;;;;;;;37.33;14.50;;;6.00;99.90;;;;;;5015599;28;20029;-79
2022/01/27 02:42:52;;;;;;;32.45;13.02;;;6.00;99.90;;;;;;5016574;28;20393;-79
2022/01/27 02:45:26;;;;;;;33.40;13.50;;;6.00;99.90;;;;;;5016501;28;20033;-79
2022/01/27 02:47:52;;;;;;;30.77;13.35;;;6.10;99.90;;;;;;5016291;28;20026;-79
2022/01/27 02:50:37;;;;;;;33.38;12.23;;;6.10;99.90;;;;;;5016621;28;20026;-79
2022/01/27 02:53:02;;;;;;;30.70;12.45;;;6.20;99.90;;;;;;5016624;28;20153;-79
2022/01/27 02:55:28;;;;;;;33.00;12.30;;;6.20;99.90;;;;;;5016172;28;20088;-80
2022/01/27 02:57:56;;;;;;;30.17;12.38;;;6.20;99.90;;;;;;5016421;28;20018;-79
2022/01/27 03:00:22;;;;;;;34.00;11.63;;;6.20;99.90;;;;;;5014819;28;20041;-79
2022/01/27 03:02:47;;;;;;;25.60;10.75;;;6.20;99.90;;;;;;5016068;28;20033;-79
2022/01/27 03:05:13;;;;;;;34.72;11.25;;;6.20;99.90;;;;;;5016801;28;20034;-79
2022/01/27 03:07:38;;;;;;;29.95;11.25;;;6.30;99.90;;;;;;5016186;28;20018;-79
2022/01/27 03:10:04;;;;;;;29.33;11.07;;;6.30;99.90;;;;;;5015992;28;20740;-79
2022/01/27 03:12:31;;;;;;;28.85;11.55;;;6.30;99.90;;;;;;5015036;28;20474;-79
2022/01/27 03:14:58;;;;;;;29.67;11.10;;;6.30;99.90;;;;;;5016034;28;20018;-79
2022/01/27 03:17:24;;;;;;;24.45;10.00;;;6.30;99.90;;;;;;5015198;28;20072;-79
2022/01/27 03:19:51;;;;;;;29.98;11.02;;;6.30;99.90;;;;;;5015814;28;20109;-79
2022/01/27 03:22:17;;;;;;;27.40;11.13;;;6.30;99.90;;;;;;5015801;28;20349;-79
2022/01/27 03:24:42;;;;;;;24.60;10.27;;;6.30;99.90;;;;;;5014583;28;20485;-79
2022/01/27 03:27:17;;;;;;;26.80;10.95;;;6.30;99.90;;;;;;5014434;28;20021;-79
2022/01/27 03:29:43;;;;;;;29.73;9.88;;;6.40;99.90;;;;;;5016006;28;20355;-79
2022/01/27 03:32:08;;;;;;;26.65;9.60;;;6.40;99.90;;;;;;5015876;28;20037;-79
2022/01/27 03:34:34;;;;;;;31.60;9.02;;;6.40;99.90;;;;;;5015481;28;20543;-79
2022/01/27 03:37:00;;;;;;;28.42;9.73;;;6.50;99.90;;;;;;5015270;28;20497;-79
2022/01/27 03:39:27;;;;;;;23.77;9.85;;;6.50;99.90;;;;;;5015407;28;20500;-79
2022/01/27 03:42:06;;;;;;;34.90;10.10;;;6.50;99.90;;;;;;5013902;28;20049;-79
2022/01/27 03:44:32;;;;;;;26.20;9.30;;;6.50;99.90;;;;;;5014315;28;20513;-79
2022/01/27 03:47:45;;;;;;;27.83;9.52;;;6.60;99.90;;;;;;5015162;28;20026;-79
2022/01/27 03:50:10;;;;;;;24.55;9.27;;;6.60;99.90;;;;;;5015313;28;20444;-79
2022/01/27 03:52:36;;;;;;;19.80;8.85;;;6.60;99.90;;;;;;5015715;28;20470;-79
2022/01/27 03:55:02;;;;;;;30.98;10.70;;;6.60;99.90;;;;;;5015287;28;20532;-79
2022/01/27 03:57:29;;;;;;;22.75;9.23;;;6.60;99.90;;;;;;5015228;28;20018;-79
2022/01/27 03:59:55;;;;;;;26.38;9.95;;;6.70;99.90;;;;;;5014039;28;20033;-79
2022/01/27 04:05:50;;;;;;;20.77;8.13;;;6.70;99.90;;;;;;5015309;28;20106;-79
2022/01/27 04:08:16;;;;;;;29.65;9.40;;;6.80;99.90;;;;;;5015714;28;20022;-79
2022/01/27 04:10:42;;;;;;;24.60;9.05;;;6.80;99.90;;;;;;5014908;28;20096;-79
2022/01/27 04:13:08;;;;;;;28.27;9.45;;;6.80;99.90;;;;;;5013562;28;20026;-79
2022/01/27 04:15:36;;;;;;;25.38;8.70;;;6.80;99.90;;;;;;5014009;28;20076;-79
2022/01/27 04:18:02;;;;;;;22.67;8.98;;;6.80;99.90;;;;;;5013561;28;20064;-79
2022/01/27 04:20:27;;;;;;;20.13;7.80;;;6.80;99.90;;;;;;5013741;28;20507;-79
2022/01/27 04:22:54;;;;;;;23.58;8.93;;;6.80;99.90;;;;;;5013406;28;20409;-79
2022/01/27 04:26:01;;;;;;;27.15;9.82;;;6.90;99.90;;;;;;5013362;28;20520;-79
2022/01/27 04:28:30;;;;;;;25.45;9.35;;;6.80;99.90;;;;;;5014573;28;20022;-79
2022/01/27 04:31:00;;;;;;;26.42;8.30;;;6.80;99.90;;;;;;5014788;28;20026;-79
2022/01/27 04:33:29;;;;;;;20.92;8.63;;;6.80;99.90;;;;;;5013490;28;20034;-79
2022/01/27 04:35:58;;;;;;;17.80;6.82;;;6.80;99.90;;;;;;5014765;28;20100;-79
2022/01/27 04:38:29;;;;;;;19.70;8.77;;;6.90;99.90;;;;;;5014939;28;20041;-78
2022/01/27 04:41:04;;;;;;;29.63;9.30;;;6.90;99.90;;;;;;5013375;28;20037;-78
2022/01/27 04:48:45;;;;;;;19.67;7.07;;;6.90;99.90;;;;;;5014822;28;20030;-79
2022/01/27 04:51:14;;;;;;;18.10;7.47;;;6.90;99.90;;;;;;5014779;28;20053;-79
2022/01/27 04:53:47;;;;;;;20.35;7.47;;;6.90;99.90;;;;;;5014754;28;20033;-79
2022/01/27 04:56:14;;;;;;;27.67;9.20;;;6.90;99.90;;;;;;5014674;28;20033;-79
2022/01/27 04:58:43;;;;;;;21.02;8.02;;;6.90;99.90;;;;;;5014425;28;20028;-79
2022/01/27 05:01:08;;;;;;;24.35;9.13;;;6.90;99.90;;;;;;5014571;28;20037;-79
2022/01/27 05:03:45;;;;;;;24.10;8.52;;;6.90;99.90;;;;;;5014074;28;20030;-79
2022/01/27 05:06:11;;;;;;;26.90;8.35;;;6.90;99.90;;;;;;5014534;28;20057;-79
2022/01/27 05:08:37;;;;;;;21.52;8.75;;;6.90;1.00;;;;;;5014248;28;20018;-79
2022/01/27 05:11:10;;;;;;;31.48;8.50;;;6.90;1.00;;;;;;5014241;28;20059;-79
2022/01/27 05:13:52;;;;;;;25.55;8.25;;;6.90;1.00;;;;;;4994802;28;20026;-79
2022/01/27 05:16:18;;;;;;;21.13;8.30;;;6.90;1.00;;;;;;4995033;28;20577;-79
2022/01/27 05:18:44;;;;;;;29.45;8.85;;;6.90;1.00;;;;;;4994493;28;20047;-79
2022/01/27 05:21:10;;;;;;;25.80;8.32;;;7.00;1.00;;;;;;4999769;28;20180;-79
2022/01/27 05:23:35;;;;;;;25.98;7.68;;;7.00;1.00;;;;;;4994711;28;20386;-79
2022/01/27 05:26:01;;;;;;;23.05;8.60;;;7.00;1.00;;;;;;5000139;28;20425;-79
2022/01/27 05:28:26;;;;;;;24.75;8.75;;;7.00;1.00;;;;;;5003249;28;20508;-79
2022/01/27 05:30:52;;;;;;;25.88;8.40;;;7.00;1.00;;;;;;4995096;28;20035;-78
2022/01/27 05:36:48;;;;;;;26.45;8.05;;;7.00;1.00;;;;;;5014259;28;20121;-79
2022/01/27 05:39:13;;;;;;;26.45;8.48;;;6.90;85.40;;;;;;4995876;28;20027;-79
2022/01/27 05:41:39;;;;;;;24.73;8.57;;;6.90;99.90;;;;;;5006104;28;20037;-79
2022/01/27 05:44:05;;;;;;;28.35;8.38;;;6.90;99.90;;;;;;5006085;28;20022;-79
2022/01/27 05:46:30;;;;;;;22.00;7.75;;;6.90;99.90;;;;;;5004631;28;20501;-79
2022/01/27 05:48:56;;;;;;;23.35;8.35;;;6.90;99.90;;;;;;5001411;28;20034;-79
2022/01/27 05:51:22;;;;;;;27.65;8.98;;;6.80;99.90;;;;;;5005308;28;20037;-79
2022/01/27 05:53:47;;;;;;;25.35;8.80;;;6.80;99.90;;;;;;5002127;28;20079;-79
2022/01/27 05:56:13;;;;;;;29.88;8.65;;;6.80;99.90;;;;;;5013932;28;20446;-79
2022/01/27 05:58:38;;;;;;;25.55;8.13;;;6.90;99.90;;;;;;5006646;28;20030;-79
2022/01/27 06:01:04;;;;;;;23.08;8.05;;;6.90;99.90;;;;;;5008382;28;20042;-80
2022/01/27 06:03:30;;;;;;;25.13;8.32;;;6.90;99.90;;;;;;5011810;28;20049;-80
2022/01/27 06:05:55;;;;;;;28.90;8.75;;;6.90;99.90;;;;;;5017038;28;20516;-79
2022/01/27 06:08:21;;;;;;;24.75;8.13;;;6.90;99.90;;;;;;5017505;28;20096;-80
2022/01/27 06:10:46;;;;;;;28.88;9.63;;;6.90;99.90;;;;;;5017529;28;20026;-80
2022/01/27 06:13:12;;;;;;;26.83;8.70;;;6.90;99.90;;;;;;5016864;28;20026;-80
2022/01/27 06:15:38;;;;;;;23.77;8.73;;;6.90;99.90;;;;;;5014695;28;20109;-80
2022/01/27 06:18:03;;;;;;;28.98;10.13;;;6.90;99.90;;;;;;5014364;28;20060;-80
2022/01/27 06:20:29;;;;;;;29.00;8.77;;;6.90;99.90;;;;;;5014478;28;20022;-79
2022/01/27 06:22:59;;;;;;;28.77;8.82;;;6.90;99.90;;;;;;5014557;28;20026;-80
2022/01/27 06:25:28;;;;;;;21.00;8.48;;;6.90;99.90;;;;;;5014702;28;20029;-80
2022/01/27 06:27:53;;;;;;;27.45;8.30;;;6.90;99.90;;;;;;5006926;28;20030;-80
2022/01/27 06:30:19;;;;;;;26.58;8.75;;;6.90;99.90;;;;;;5014494;28;20029;-80
2022/01/27 06:32:45;;;;;;;25.92;8.02;;;6.90;99.90;;;;;;5014319;28;20049;-80
2022/01/27 06:35:11;;;;;;;23.20;7.53;;;6.90;99.90;;;;;;5014293;28;20030;-80
2022/01/27 06:37:39;;;;;;;19.17;6.80;;;6.90;99.90;;;;;;5014232;28;20037;-80
2022/01/27 06:40:05;;;;;;;34.70;8.40;;;6.90;99.90;;;;;;5015290;28;20441;-80
2022/01/27 06:42:31;;;;;;;26.95;7.47;;;6.90;99.90;;;;;;5010529;28;20168;-80
2022/01/27 06:44:57;;;;;;;21.52;7.50;;;6.90;99.90;;;;;;5013767;28;20477;-80
2022/01/27 06:47:22;;;;;;;24.52;8.88;;;6.90;99.90;;;;;;5013794;28;20030;-80
2022/01/27 06:49:48;;;;;;;26.08;8.75;;;6.90;99.90;;;;;;5013545;28;20033;-80
2022/01/27 06:52:14;;;;;;;24.63;7.82;;;6.90;99.90;;;;;;5014126;28;20038;-79
2022/01/27 06:54:39;;;;;;;25.20;8.10;;;6.90;99.90;;;;;;5013855;28;20022;-79
2022/01/27 06:57:06;;;;;;;24.75;7.40;;;6.90;99.90;;;;;;5013830;28;20485;-79
2022/01/27 06:59:32;;;;;;;26.40;8.02;;;6.90;99.90;;;;;;5014028;28;20473;-79
2022/01/27 07:01:57;;;;;;;22.90;7.93;;;6.90;99.90;;;;;;5013761;28;20039;-79
2022/01/27 07:04:23;;;;;;;28.23;7.70;;;7.00;99.90;;;;;;5013823;28;20030;-79
2022/01/27 07:06:51;;;;;;;26.05;8.15;;;7.00;99.90;;;;;;5013866;28;20068;-80
2022/01/27 07:09:17;;;;;;;31.85;7.43;;;7.00;99.90;;;;;;5013733;28;20421;-80
2022/01/27 07:11:43;;;;;;;16.67;6.80;;;7.00;99.90;;;;;;5012692;28;20101;-79
2022/01/27 07:14:08;;;;;;;28.45;9.45;;;7.00;99.90;;;;;;5013699;28;20078;-79
2022/01/27 07:16:34;;;;;;;22.50;6.78;;;7.10;99.90;;;;;;5001422;28;20425;-79
2022/01/27 07:19:00;;;;;;;27.52;7.25;;;7.10;99.90;;;;;;5011943;28;20141;-79
2022/01/27 07:21:26;;;;;;;22.77;6.35;;;7.10;99.90;;;;;;5011197;28;20034;-79
2022/01/27 07:23:51;;;;;;;22.65;6.07;;;7.10;99.90;;;;;;5013533;28;20072;-79
2022/01/27 07:26:20;;;;;;;20.02;6.50;;;7.10;99.90;;;;;;5013771;28;20452;-79
2022/01/27 07:28:46;;;;;;;22.85;5.88;;;7.10;99.90;;;;;;5013567;28;20053;-79
2022/01/27 07:31:11;;;;;;;23.55;6.25;;;7.20;99.90;;;;;;5013781;28;20076;-79
2022/01/27 07:33:37;;;;;;;22.42;7.13;;;7.20;99.90;;;;;;5012365;28;20433;-79
2022/01/27 07:36:02;;;;;;;21.42;5.70;;;7.20;99.90;;;;;;5013160;28;20389;-79
2022/01/27 07:38:28;;;;;;;21.48;6.57;;;7.20;99.90;;;;;;5012834;28;20026;-78
2022/01/27 07:40:53;;;;;;;19.98;6.30;;;7.20;99.90;;;;;;5013082;28;20076;-79
2022/01/27 07:43:19;;;;;;;25.02;5.07;;;7.20;99.90;;;;;;5013037;28;20026;-79
2022/01/27 07:45:45;;;;;;;23.95;6.53;;;7.30;99.90;;;;;;5013167;28;20105;-79
2022/01/27 07:48:10;;;;;;;22.48;5.55;;;7.30;99.90;;;;;;5012948;28;20025;-79
2022/01/27 07:50:36;;;;;;;21.50;6.22;;;7.30;99.90;;;;;;5013006;28;20026;-79
2022/01/27 07:53:03;;;;;;;26.30;6.07;;;7.30;99.90;;;;;;5012660;28;20057;-79
2022/01/27 07:55:29;;;;;;;18.55;5.22;;;7.30;99.90;;;;;;5014193;28;20022;-79
2022/01/27 07:57:54;;;;;;;20.13;5.68;;;7.30;99.90;;;;;;5012346;28;20101;-79
2022/01/27 08:00:20;;;;;;;18.55;5.45;;;7.40;99.90;;;;;;5012784;28;20159;-79
2022/01/27 08:02:46;;;;;;;23.27;5.20;;;7.40;99.90;;;;;;5012884;28;20030;-80
2022/01/27 08:05:12;;;;;;;18.77;6.10;;;7.50;99.90;;;;;;5012753;28;20029;-79
2022/01/27 08:07:38;;;;;;;15.10;4.68;;;7.60;99.90;;;;;;5011515;28;20018;-79
2022/01/27 08:10:04;;;;;;;15.90;4.53;;;7.60;99.90;;;;;;5012067;28;20026;-80
2022/01/27 08:12:30;;;;;;;12.85;4.20;;;7.70;99.90;;;;;;5012501;28;20036;-79
2022/01/27 08:14:55;;;;;;;17.30;4.13;;;7.70;99.90;;;;;;5012377;28;20022;-80
2022/01/27 08:17:21;;;;;;;14.10;4.43;;;7.60;99.90;;;;;;5012740;28;20420;-79
2022/01/27 08:19:46;;;;;;;14.93;4.80;;;7.70;99.90;;;;;;4999727;28;20438;-79
2022/01/27 08:22:12;;;;;;;15.75;4.10;;;7.70;99.90;;;;;;5002023;28;20061;-80
2022/01/27 08:24:38;;;;;;;17.02;4.07;;;7.70;99.90;;;;;;5001487;28;20022;-79
2022/01/27 08:27:06;;;;;;;14.48;3.85;;;7.70;99.90;;;;;;5009076;28;20018;-79
2022/01/27 08:29:42;;;;;;;12.88;3.63;;;7.70;99.90;;;;;;5000262;28;20025;-79
2022/01/27 08:32:15;;;;;;;12.32;3.80;;;7.70;99.90;;;;;;5004231;28;20405;-79
2022/01/27 08:34:42;;;;;;;15.57;4.47;;;7.80;99.90;;;;;;4997416;28;20728;-79
2022/01/27 08:37:11;;;;;;;15.10;3.90;;;7.80;99.90;;;;;;5000161;28;20022;-79
2022/01/27 08:39:38;;;;;;;11.90;3.67;;;7.80;99.90;;;;;;5011034;28;20032;-79
2022/01/27 08:42:05;;;;;;;15.10;3.92;;;7.80;99.90;;;;;;5010673;28;20030;-79
2022/01/27 08:44:31;;;;;;;16.52;5.65;;;7.80;99.90;;;;;;5009946;28;20397;-79
2022/01/27 08:46:57;;;;;;;12.40;2.95;;;7.90;99.90;;;;;;5002069;28;20050;-79
2022/01/27 08:49:25;;;;;;;13.63;3.72;;;7.90;99.90;;;;;;4993041;28;20014;-79
2022/01/27 08:51:51;;;;;;;13.77;3.58;;;7.90;99.90;;;;;;5010319;28;20030;-79
2022/01/27 08:54:16;;;;;;;16.15;3.70;;;7.90;99.90;;;;;;5011031;28;20036;-80
2022/01/27 08:56:42;;;;;;;10.65;3.50;;;8.00;99.90;;;;;;5011220;28;20164;-80
2022/01/27 08:59:08;;;;;;;16.67;3.67;;;8.00;99.90;;;;;;5011227;28;20386;-80
2022/01/27 09:01:35;;;;;;;15.90;4.13;;;8.00;99.90;;;;;;5009720;28;20084;-80
2022/01/27 09:04:01;;;;;;;18.65;3.95;;;8.10;99.90;;;;;;4999424;28;20101;-79
2022/01/27 09:06:29;;;;;;;16.08;3.78;;;8.00;99.90;;;;;;4997321;28;20156;-79
2022/01/27 09:08:56;;;;;;;21.27;4.25;;;8.00;99.90;;;;;;5009578;28;20224;-80
2022/01/27 09:11:22;;;;;;;13.93;3.40;;;8.20;99.90;;;;;;5010994;28;20017;-79
2022/01/27 09:13:48;;;;;;;21.00;4.05;;;8.30;99.90;;;;;;5011304;28;20025;-80
2022/01/27 09:16:14;;;;;;;17.98;4.97;;;8.50;99.90;;;;;;5010565;28;20029;-80
2022/01/27 09:18:40;;;;;;;15.55;3.67;;;8.50;99.90;;;;;;5011492;28;20547;-80
2022/01/27 09:21:12;;;;;;;13.48;3.65;;;8.50;99.90;;;;;;4997041;28;20379;-80
2022/01/27 09:23:37;;;;;;;14.98;3.80;;;8.50;99.90;;;;;;5004522;28;20026;-79
2022/01/27 09:26:07;;;;;;;16.80;3.17;;;8.50;99.90;;;;;;5011258;28;20029;-80
2022/01/27 09:28:33;;;;;;;13.90;3.15;;;8.40;99.90;;;;;;5004751;28;20014;-79
2022/01/27 09:30:59;;;;;;;12.38;3.25;;;8.40;99.90;;;;;;5014177;28;20442;-80
2022/01/27 09:33:25;;;;;;;12.30;3.75;;;8.50;99.90;;;;;;5014741;28;20030;-80
2022/01/27 09:35:50;;;;;;;11.00;3.15;;;8.50;99.90;;;;;;5016805;28;20026;-79
2022/01/27 09:38:19;;;;;;;20.25;4.28;;;8.50;99.90;;;;;;5015446;28;20026;-80
2022/01/27 09:40:49;;;;;;;18.13;3.47;;;8.50;99.90;;;;;;5006003;28;20355;-79
2022/01/27 09:43:15;;;;;;;16.70;3.55;;;8.70;99.90;;;;;;5013334;28;20033;-80
2022/01/27 09:45:40;;;;;;;17.45;4.32;;;8.70;99.90;;;;;;5013814;28;20049;-80
2022/01/27 09:48:15;;;;;;;12.90;3.25;;;8.80;99.90;;;;;;5014116;28;20207;-79
2022/01/27 09:50:59;;;;;;;20.98;3.58;;;8.90;99.90;;;;;;5014328;28;20033;-79
2022/01/27 09:53:25;;;;;;;13.98;3.17;;;9.00;77.20;;;;;;5012863;28;20550;-79
2022/01/27 09:55:50;;;;;;;14.65;4.25;;;9.10;37.90;;;;;;5013076;28;20030;-80
2022/01/27 09:58:16;;;;;;;15.35;3.83;;;9.20;1.00;;;;;;5013102;28;20037;-80
2022/01/27 10:00:41;;;;;;;19.52;4.88;;;9.20;13.60;;;;;;5013720;28;20041;-79
2022/01/27 10:03:13;;;;;;;13.23;3.28;;;9.30;1.00;;;;;;5014137;28;20034;-80
2022/01/27 10:05:41;;;;;;;8.40;2.78;;;9.20;1.00;;;;;;5005519;28;20053;-80
2022/01/27 10:08:12;;;;;;;11.35;2.63;;;9.30;1.00;;;;;;4996596;28;20033;-80
2022/01/27 10:10:41;;;;;;;12.40;3.58;;;9.30;1.00;;;;;;4996234;28;20026;-80
2022/01/27 10:13:08;;;;;;;10.60;3.10;;;9.20;1.00;;;;;;4998136;28;20026;-80
2022/01/27 10:15:39;;;;;;;16.45;3.53;;;9.20;1.00;;;;;;5004323;28;20474;-80
2022/01/27 10:18:07;;;;;;;12.57;3.25;;;9.40;1.00;;;;;;5002226;28;20042;-80
2022/01/27 10:20:34;;;;;;;11.88;3.08;;;9.60;1.00;;;;;;5007741;28;20034;-80
2022/01/27 10:23:21;;;;;;;9.77;3.05;;;9.80;99.90;;;;;;5002620;28;20129;-80
2022/01/27 10:25:55;;;;;;;18.83;3.20;;;9.80;99.90;;;;;;5011324;28;20378;-80
2022/01/27 10:28:25;;;;;;;12.88;3.20;;;9.70;99.90;;;;;;5012584;28;20038;-80
2022/01/27 10:31:06;;;;;;;13.00;2.85;;;9.70;99.90;;;;;;4997241;28;20393;-80
2022/01/27 10:33:55;;;;;;;12.40;2.60;;;9.90;99.90;;;;;;4996650;28;20469;-81
2022/01/27 10:36:22;;;;;;;13.77;2.47;;;9.90;99.90;;;;;;4998042;28;20031;-80
2022/01/27 10:38:58;;;;;;;13.35;2.92;;;10.00;99.90;;;;;;4997928;28;20037;-80
2022/01/27 10:41:25;;;;;;;12.90;3.00;;;10.20;99.90;;;;;;5006267;28;20030;-80
2022/01/27 10:44:05;;;;;;;12.82;2.10;;;10.20;99.90;;;;;;5012892;28;20027;-80
2022/01/27 10:46:32;;;;;;;13.68;2.85;;;10.20;99.90;;;;;;5003137;28;20069;-80
2022/01/27 10:51:26;;;;;;;14.27;2.88;;;10.60;99.90;;;;;;5013210;28;20041;-80
2022/01/27 10:54:18;;;;;;;12.82;2.88;;;10.40;99.90;;;;;;5013377;28;20045;-80
2022/01/27 10:56:43;;;;;;;17.42;2.70;;;10.20;99.90;;;;;;5008038;28;20517;-80
2022/01/27 10:59:18;;;;;;;12.85;2.78;;;10.00;99.90;;;;;;5009255;28;20022;-80
2022/01/27 11:01:46;;;;;;;12.25;2.70;;;9.90;99.90;;;;;;5008484;28;20076;-80
2022/01/27 11:04:14;;;;;;;19.45;2.60;;;9.90;99.90;;;;;;5008167;28;20145;-80
2022/01/27 11:06:57;;;;;;;23.35;2.95;;;9.90;99.90;;;;;;4998963;28;20022;-80
2022/01/27 11:09:23;;;;;;;17.02;3.40;;;9.90;99.90;;;;;;5005545;28;20478;-80
2022/01/27 11:11:52;;;;;;;13.18;2.80;;;10.00;99.90;;;;;;4998942;28;20394;-80
2022/01/27 11:14:19;;;;;;;14.60;2.55;;;9.90;99.90;;;;;;5004682;28;20084;-80
2022/01/27 11:16:47;;;;;;;16.02;2.90;;;9.90;99.90;;;;;;5012668;28;20026;-80
2022/01/27 11:21:41;;;;;;;15.98;3.28;;;10.10;99.90;;;;;;5003611;28;20321;-80
2022/01/27 11:24:16;;;;;;;21.00;4.05;;;10.10;99.90;;;;;;5003409;28;20057;-80
2022/01/27 11:26:45;;;;;;;12.68;2.55;;;10.00;99.90;;;;;;4996737;28;20398;-80
2022/01/27 11:29:13;;;;;;;13.50;2.75;;;9.70;99.90;;;;;;5003958;28;20026;-80
2022/01/27 11:31:48;;;;;;;5.93;2.15;;;9.60;99.90;;;;;;5006324;28;20025;-80
2022/01/27 11:34:14;;;;;;;17.70;2.90;;;9.60;99.90;;;;;;5005917;28;20041;-80
2022/01/27 11:37:00;;;;;;;13.45;2.35;;;10.00;99.90;;;;;;4998067;28;20022;-80
2022/01/27 11:39:55;;;;;;;11.60;1.92;;;10.20;99.90;;;;;;5006146;28;20495;-80
2022/01/27 11:42:42;;;;;;;23.02;3.35;;;10.30;99.90;;;;;;5004652;28;20535;-80
2022/01/27 11:45:23;;;;;;;14.30;3.17;;;10.40;99.90;;;;;;5012245;28;20032;-80
2022/01/27 11:48:01;;;;;;;19.33;2.30;;;10.40;99.90;;;;;;5011942;28;20026;-80
2022/01/27 11:50:34;;;;;;;12.40;2.08;;;10.40;99.90;;;;;;5012722;28;20543;-80
2022/01/27 11:53:08;;;;;;;13.13;2.20;;;10.50;99.90;;;;;;5011936;28;20381;-80
2022/01/27 11:55:34;;;;;;;12.35;2.25;;;10.60;99.90;;;;;;5010402;28;20113;-80
2022/01/27 11:58:19;;;;;;;14.23;3.08;;;10.50;99.90;;;;;;5010171;28;20038;-80
2022/01/27 12:01:11;;;;;;;18.80;3.70;;;10.60;99.90;;;;;;5003552;28;20120;-80
2022/01/27 12:03:38;;;;;;;8.27;2.08;;;10.70;99.90;;;;;;5009819;28;20033;-80
2022/01/27 12:06:20;;;;;;;13.15;2.50;;;10.70;92.80;;;;;;5010193;28;20068;-80
2022/01/27 12:08:46;;;;;;;12.80;2.58;;;10.40;99.90;;;;;;5007066;28;20053;-80
2022/01/27 12:11:43;;;;;;;15.50;2.20;;;10.40;99.90;;;;;;5011738;28;20030;-80
2022/01/27 12:14:09;;;;;;;14.30;2.63;;;10.20;99.90;;;;;;5011966;28;20024;-81
2022/01/27 12:19:08;;;;;;;13.95;2.58;;;10.00;99.90;;;;;;4999216;28;20076;-80
2022/01/27 12:21:36;;;;;;;13.45;2.40;;;10.10;99.90;;;;;;5008121;28;20034;-80
2022/01/27 12:24:11;;;;;;;11.80;2.22;;;10.20;99.90;;;;;;5000300;28;20018;-81
2022/01/27 12:27:07;;;;;;;13.50;2.75;;;10.20;99.90;;;;;;5006867;28;20048;-80
2022/01/27 12:29:40;;;;;;;14.90;2.03;;;10.20;99.90;;;;;;5003512;28;20022;-80
2022/01/27 12:32:20;;;;;;;16.58;2.20;;;10.20;73.00;;;;;;5010716;28;20034;-81
2022/01/27 12:34:47;;;;;;;;;;;10.30;99.90;;;;;;4998903;28;20136;-80
2022/01/27 12:37:14;;;;;;;10.20;2.35;;;10.30;92.70;;;;;;5009704;28;20353;-81
2022/01/27 12:39:43;;;;;;;15.48;2.50;;;10.40;71.90;;;;;;5012065;28;20022;-80
2022/01/27 12:42:15;;;;;;;17.65;2.03;;;10.30;67.40;;;;;;5010946;28;20485;-81
2022/01/27 12:44:59;;;;;;;18.98;2.55;;;10.20;78.40;;;;;;5010272;28;20060;-81
2022/01/27 12:47:26;;;;;;;12.55;2.30;;;10.00;83.50;;;;;;5011717;28;20557;-81
2022/01/27 12:50:04;;;;;;;13.05;2.35;;;10.00;71.20;;;;;;5010325;28;20076;-81
2022/01/27 12:52:36;;;;;;;16.10;2.35;;;9.90;47.10;;;;;;5011855;28;20065;-81
2022/01/27 12:55:02;;;;;;;16.77;2.47;;;9.70;86.50;;;;;;5010817;28;20033;-81
2022/01/27 12:57:32;;;;;;;14.52;2.13;;;9.50;99.90;;;;;;5011533;28;20532;-81
2022/01/27 12:59:59;;;;;;;14.27;2.35;;;9.50;99.90;;;;;;5010690;28;20034;-81
2022/01/27 13:02:26;;;;;;;19.80;2.65;;;9.50;99.90;;;;;;5008726;28;20525;-80
2022/01/27 13:04:57;;;;;;;20.90;3.45;;;9.50;99.90;;;;;;5002832;28;20410;-80
2022/01/27 13:07:25;;;;;;;14.80;2.55;;;9.40;99.90;;;;;;5011767;28;20499;-80
2022/01/27 13:10:04;;;;;;;24.90;2.53;;;9.50;99.90;;;;;;5009806;28;20025;-81
2022/01/27 13:15:26;;;;;;;18.95;2.70;;;10.00;99.90;;;;;;5012494;28;20118;-80
2022/01/27 13:17:57;;;;;;;20.85;2.80;;;10.10;86.50;;;;;;5011324;28;20049;-80
2022/01/27 13:20:44;;;;;;;16.58;2.22;;;10.20;48.60;;;;;;5010455;28;20069;-80
2022/01/27 13:25:54;;;;;;;14.48;1.85;;;10.40;29.70;;;;;;5011531;28;20073;-81
2022/01/27 13:28:24;;;;;;;17.65;2.22;;;10.10;17.50;;;;;;5010385;28;20034;-80
2022/01/27 13:30:53;;;;;;;14.32;2.20;;;10.10;19.50;;;;;;5011403;28;20021;-81
2022/01/27 13:33:22;;;;;;;18.48;3.03;;;10.00;4.60;;;;;;5011529;28;20034;-80
2022/01/27 13:35:50;;;;;;;15.15;1.92;;;9.90;19.00;;;;;;5007439;28;20567;-80
2022/01/27 13:38:29;;;;;;;12.80;2.15;;;10.00;1.00;;;;;;4999480;28;20023;-80
2022/01/27 13:41:20;;;;;;;8.52;1.50;;;9.90;1.00;;;;;;4998781;28;20041;-80
2022/01/27 13:43:51;;;;;;;11.98;2.20;;;10.00;14.90;;;;;;5009915;28;20541;-81
2022/01/27 13:46:41;;;;;;;11.68;1.85;;;9.80;23.60;;;;;;5010298;28;20030;-81
2022/01/27 13:49:27;;;;;;;17.92;2.60;;;9.60;48.60;;;;;;5010233;28;20038;-80
2022/01/27 13:51:57;;;;;;;13.20;1.98;;;9.70;72.00;;;;;;5010995;28;20486;-81